createdAt,value
2022-12-12T00:01:19.301Z,-6.78
2022-12-12T00:04:00.656Z,-6.76
2022-12-12T00:06:41.553Z,-6.75
2022-12-12T00:09:21.371Z,-6.76
2022-12-12T00:12:01.187Z,-6.76
2022-12-12T00:14:42.946Z,-6.78
2022-12-12T00:17:25.975Z,-6.76
2022-12-12T00:20:09.403Z,-6.76
2022-12-12T00:22:49.966Z,-6.74
2022-12-12T00:25:29.801Z,-6.76
2022-12-12T00:28:09.585Z,-6.75
2022-12-12T00:30:49.622Z,-6.77
2022-12-12T00:33:30.801Z,-6.75
2022-12-12T00:36:12.611Z,-6.77
2022-12-12T00:38:53.804Z,-6.77
2022-12-12T00:41:35.012Z,-6.78
2022-12-12T00:44:14.834Z,-6.78
2022-12-12T00:46:54.627Z,-6.79
2022-12-12T00:49:34.467Z,-6.78
2022-12-12T00:52:14.359Z,-6.79
2022-12-12T00:54:55.645Z,-6.82
2022-12-12T00:57:35.695Z,-6.83
2022-12-12T01:00:19.646Z,-6.85
2022-12-12T01:03:00.043Z,-6.86
2022-12-12T01:05:41.417Z,-6.85
2022-12-12T01:08:22.740Z,-6.88
2022-12-12T01:11:02.487Z,-6.87
2022-12-12T01:13:44.533Z,-6.91
2022-12-12T01:16:25.681Z,-6.91
2022-12-12T01:19:06.760Z,-6.97
2022-12-12T01:21:46.565Z,-6.99
2022-12-12T01:24:26.497Z,-6.97
2022-12-12T01:27:26.970Z,-6.97
2022-12-12T01:30:07.797Z,-6.98
2022-12-12T01:32:48.155Z,-6.99
2022-12-12T01:35:28.089Z,-7.01
2022-12-12T01:38:09.489Z,-7.01
2022-12-12T01:40:50.855Z,-7.00
2022-12-12T01:43:32.587Z,-7.03
2022-12-12T01:46:33.593Z,-7.07
2022-12-12T01:49:21.827Z,-7.06
2022-12-12T01:52:03.308Z,-7.09
2022-12-12T01:54:43.635Z,-7.12
2022-12-12T01:57:26.917Z,-7.14
2022-12-12T02:00:09.800Z,-7.14
2022-12-12T02:02:52.567Z,-7.15
2022-12-12T02:05:34.677Z,-7.17
2022-12-12T02:08:15.271Z,-7.19
2022-12-12T02:10:57.044Z,-7.21
2022-12-12T02:13:38.050Z,-7.21
2022-12-12T02:16:22.003Z,-7.23
2022-12-12T02:19:04.324Z,-7.24
2022-12-12T02:21:45.920Z,-7.26
2022-12-12T02:24:40.419Z,-7.29
2022-12-12T02:27:39.736Z,-7.29
2022-12-12T02:30:22.850Z,-7.34
2022-12-12T02:33:07.161Z,-7.34
2022-12-12T02:35:55.115Z,-7.35
2022-12-12T02:38:38.416Z,-7.39
2022-12-12T02:41:19.163Z,-7.41
2022-12-12T02:44:06.519Z,-7.41
2022-12-12T02:46:52.880Z,-7.45
2022-12-12T02:49:36.545Z,-7.47
2022-12-12T02:52:18.965Z,-7.50
2022-12-12T02:54:59.954Z,-7.49
2022-12-12T02:57:42.053Z,-7.47
2022-12-12T03:00:24.775Z,-7.50
2022-12-12T03:03:33.505Z,-7.51
2022-12-12T03:06:40.641Z,-7.55
2022-12-12T03:09:24.662Z,-7.58
2022-12-12T03:12:06.002Z,-7.59
2022-12-12T03:14:50.757Z,-7.58
2022-12-12T03:17:32.832Z,-7.60
2022-12-12T03:20:14.110Z,-7.59
2022-12-12T03:22:57.455Z,-7.61
2022-12-12T03:25:39.522Z,-7.65
2022-12-12T03:28:24.309Z,-7.69
2022-12-12T03:31:06.941Z,-7.70
2022-12-12T03:33:47.306Z,-7.70
2022-12-12T03:36:28.723Z,-7.71
2022-12-12T03:39:10.172Z,-7.72
2022-12-12T03:41:51.730Z,-7.77
2022-12-12T03:44:39.743Z,-7.73
2022-12-12T03:47:24.604Z,-7.75
2022-12-12T03:50:05.684Z,-7.78
2022-12-12T03:52:46.736Z,-7.78
2022-12-12T03:55:30.642Z,-7.82
2022-12-12T03:58:14.035Z,-7.85
2022-12-12T04:00:55.652Z,-7.86
2022-12-12T04:03:40.126Z,-7.85
2022-12-12T04:06:28.068Z,-7.86
2022-12-12T04:09:27.249Z,-7.87
2022-12-12T04:12:27.150Z,-7.89
2022-12-12T04:15:16.243Z,-7.91
2022-12-12T04:17:59.347Z,-7.93
2022-12-12T04:21:01.507Z,-7.94
2022-12-12T04:23:49.803Z,-7.95
2022-12-12T04:26:42.768Z,-7.95
2022-12-12T04:29:27.154Z,-7.96
2022-12-12T04:32:12.782Z,-8.00
2022-12-12T04:34:56.152Z,-8.02
2022-12-12T04:37:40.083Z,-8.02
2022-12-12T04:40:22.384Z,-8.02
2022-12-12T04:43:04.175Z,-8.01
2022-12-12T04:45:47.555Z,-8.01
2022-12-12T04:48:33.319Z,-8.02
2022-12-12T04:51:19.588Z,-8.04
2022-12-12T04:54:03.822Z,-8.04
2022-12-12T04:56:45.077Z,-8.04
2022-12-12T04:59:24.883Z,-8.06
2022-12-12T05:02:06.301Z,-8.07
2022-12-12T05:04:58.688Z,-8.10
2022-12-12T05:07:40.615Z,-8.14
2022-12-12T05:10:21.029Z,-8.12
2022-12-12T05:13:02.153Z,-8.13
2022-12-12T05:15:44.919Z,-8.13
2022-12-12T05:18:25.022Z,-8.16
2022-12-12T05:21:06.535Z,-8.16
2022-12-12T05:23:47.770Z,-8.16
2022-12-12T05:26:29.491Z,-8.19
2022-12-12T05:29:12.497Z,-8.18
2022-12-12T05:31:53.499Z,-8.19
2022-12-12T05:34:33.337Z,-8.19
2022-12-12T05:37:14.130Z,-8.19
2022-12-12T05:39:54.515Z,-8.22
2022-12-12T05:42:34.360Z,-8.25
2022-12-12T05:45:16.248Z,-8.27
2022-12-12T05:47:57.758Z,-8.27
2022-12-12T05:50:40.553Z,-8.30
2022-12-12T05:53:21.576Z,-8.28
2022-12-12T05:56:01.404Z,-8.28
2022-12-12T05:58:43.478Z,-8.27
2022-12-12T06:01:26.197Z,-8.29
2022-12-12T06:04:07.273Z,-8.30
2022-12-12T06:06:50.592Z,-8.29
2022-12-12T06:09:31.965Z,-8.32
2022-12-12T06:12:13.124Z,-8.30
2022-12-12T06:14:54.411Z,-8.30
2022-12-12T06:17:34.430Z,-8.30
2022-12-12T06:20:15.643Z,-8.33
2022-12-12T06:22:55.469Z,-8.33
2022-12-12T06:25:37.237Z,-8.34
2022-12-12T06:28:18.290Z,-8.35
2022-12-12T06:31:00.207Z,-8.36
2022-12-12T06:33:43.457Z,-8.37
2022-12-12T06:36:26.065Z,-8.38
2022-12-12T06:39:07.270Z,-8.40
2022-12-12T06:41:48.461Z,-8.42
2022-12-12T06:44:28.391Z,-8.43
2022-12-12T06:47:11.681Z,-8.43
2022-12-12T06:49:54.696Z,-8.46
2022-12-12T06:52:35.693Z,-8.47
2022-12-12T06:55:15.702Z,-8.46
2022-12-12T06:57:56.936Z,-8.47
2022-12-12T07:00:36.733Z,-8.49
2022-12-12T07:03:18.592Z,-8.51
2022-12-12T07:05:59.738Z,-8.52
2022-12-12T07:08:41.512Z,-8.56
2022-12-12T07:11:25.060Z,-8.57
2022-12-12T07:14:05.657Z,-8.56
2022-12-12T07:16:46.827Z,-8.55
2022-12-12T07:19:28.619Z,-8.54
2022-12-12T07:22:10.689Z,-8.58
2022-12-12T07:24:51.490Z,-8.55
2022-12-12T07:27:32.415Z,-8.54
2022-12-12T07:30:13.393Z,-8.50
2022-12-12T07:32:53.638Z,-8.51
2022-12-12T07:35:33.438Z,-8.49
2022-12-12T07:38:13.304Z,-8.47
2022-12-12T07:40:53.094Z,-8.49
2022-12-12T07:43:34.010Z,-8.48
2022-12-12T07:46:16.393Z,-8.50
2022-12-12T07:48:57.353Z,-8.49
2022-12-12T07:51:41.894Z,-8.47
2022-12-12T07:54:26.512Z,-8.46
2022-12-12T07:57:08.307Z,-8.44
2022-12-12T07:59:49.397Z,-8.45
2022-12-12T08:02:30.723Z,-8.43
2022-12-12T08:05:11.078Z,-8.42
2022-12-12T08:07:51.965Z,-8.38
2022-12-12T08:10:33.438Z,-8.35
2022-12-12T08:13:16.736Z,-8.32
2022-12-12T08:15:57.966Z,-8.30
2022-12-12T08:18:39.169Z,-8.27
2022-12-12T08:21:25.101Z,-8.20
2022-12-12T08:24:09.660Z,-8.20
2022-12-12T08:26:50.070Z,-8.15
2022-12-12T08:29:31.194Z,-8.10
2022-12-12T08:32:10.982Z,-8.05
2022-12-12T08:34:50.764Z,-8.01
2022-12-12T08:37:30.883Z,-7.93
2022-12-12T08:40:12.898Z,-7.87
2022-12-12T08:42:53.463Z,-7.82
2022-12-12T08:45:35.009Z,-7.77
2022-12-12T08:48:16.215Z,-7.72
2022-12-12T08:50:56.051Z,-7.67
2022-12-12T08:53:35.924Z,-7.65
2022-12-12T08:56:15.805Z,-7.59
2022-12-12T08:58:57.081Z,-7.50
2022-12-12T09:01:39.038Z,-7.49
2022-12-12T09:04:19.860Z,-7.44
2022-12-12T09:07:03.583Z,-7.39
2022-12-12T09:09:47.487Z,-7.34
2022-12-12T09:12:29.434Z,-7.29
2022-12-12T09:15:11.195Z,-7.22
2022-12-12T09:17:51.752Z,-7.18
2022-12-12T09:20:31.544Z,-7.11
2022-12-12T09:23:11.343Z,-7.04
2022-12-12T09:25:53.191Z,-6.98
2022-12-12T09:28:34.227Z,-6.90
2022-12-12T09:31:15.579Z,-6.80
2022-12-12T09:33:56.972Z,-6.78
2022-12-12T09:36:36.889Z,-6.70
2022-12-12T09:39:20.169Z,-6.62
2022-12-12T09:42:10.922Z,-6.55
2022-12-12T09:44:52.254Z,-6.48
2022-12-12T09:47:35.493Z,-6.41
2022-12-12T09:50:18.322Z,-6.33
2022-12-12T09:53:00.045Z,-6.28
2022-12-12T09:55:41.792Z,-6.19
2022-12-12T09:58:24.081Z,-6.10
2022-12-12T10:01:12.965Z,-6.01
2022-12-12T10:03:57.755Z,-5.95
2022-12-12T10:06:39.730Z,-5.86
2022-12-12T10:09:25.947Z,-5.83
2022-12-12T10:12:08.644Z,-5.70
2022-12-12T10:14:51.497Z,-5.55
2022-12-12T10:17:33.833Z,-5.48
2022-12-12T10:20:15.868Z,-5.40
2022-12-12T10:22:56.770Z,-5.28
2022-12-12T10:25:40.856Z,-5.16
2022-12-12T10:28:22.502Z,-5.12
2022-12-12T10:31:16.081Z,-5.09
2022-12-12T10:34:01.793Z,-5.03
2022-12-12T10:36:55.313Z,-4.99
2022-12-12T10:39:40.367Z,-4.91
2022-12-12T10:42:22.827Z,-4.79
2022-12-12T10:45:35.937Z,-4.64
2022-12-12T10:48:15.739Z,-4.61
2022-12-12T10:50:58.812Z,-4.56
2022-12-12T10:53:40.550Z,-4.45
2022-12-12T10:56:24.096Z,-4.41
2022-12-12T10:59:06.670Z,-4.36
2022-12-12T11:04:49.789Z,-4.29
2022-12-12T11:07:31.598Z,-4.27
2022-12-12T11:10:29.217Z,-4.19
2022-12-12T11:13:16.867Z,-4.17
2022-12-12T11:15:57.942Z,-4.08
2022-12-12T11:18:39.159Z,-4.02
2022-12-12T11:21:21.027Z,-3.91
2022-12-12T11:24:04.496Z,-3.79
2022-12-12T11:26:45.506Z,-3.71
2022-12-12T11:29:31.595Z,-3.60
2022-12-12T11:32:14.020Z,-3.48
2022-12-12T11:34:54.425Z,-3.25
2022-12-12T11:37:39.425Z,-2.93
2022-12-12T11:40:22.935Z,-2.65
2022-12-12T11:43:08.658Z,-2.39
2022-12-12T11:45:59.846Z,-2.11
2022-12-12T11:48:43.922Z,-1.80
2022-12-12T11:51:32.401Z,-1.59
2022-12-12T11:54:14.036Z,-1.45
2022-12-12T11:56:55.978Z,-1.19
2022-12-12T11:59:41.432Z,-0.94
2022-12-12T12:02:35.258Z,-0.68
2022-12-12T12:05:18.746Z,-0.56
2022-12-12T12:08:05.619Z,-0.36
2022-12-12T12:10:51.333Z,-0.13
2022-12-12T12:13:37.301Z,0.04
2022-12-12T12:16:19.800Z,0.21
2022-12-12T12:19:07.713Z,0.34
2022-12-12T12:21:52.203Z,0.54
2022-12-12T12:24:36.724Z,0.60
2022-12-12T12:27:19.027Z,0.68
2022-12-12T12:30:18.506Z,0.80
2022-12-12T12:33:09.971Z,0.87
2022-12-12T12:35:53.631Z,1.01
2022-12-12T12:38:40.797Z,1.10
2022-12-12T12:41:26.016Z,1.19
2022-12-12T12:44:09.679Z,1.31
2022-12-12T12:46:57.537Z,1.40
2022-12-12T12:49:40.653Z,1.44
2022-12-12T12:52:22.639Z,1.44
2022-12-12T12:55:03.115Z,1.43
2022-12-12T12:57:45.369Z,1.43
2022-12-12T13:00:26.557Z,1.24
2022-12-12T13:03:08.816Z,1.13
2022-12-12T13:05:51.264Z,1.08
2022-12-12T13:08:32.676Z,0.97
2022-12-12T13:11:13.394Z,0.89
2022-12-12T13:13:55.714Z,0.74
2022-12-12T13:16:35.855Z,0.58
2022-12-12T13:19:16.302Z,0.51
2022-12-12T13:21:57.827Z,0.42
2022-12-12T13:24:42.391Z,0.43
2022-12-12T13:27:23.810Z,0.45
2022-12-12T13:30:06.057Z,0.52
2022-12-12T13:33:01.473Z,0.60
2022-12-12T13:35:45.784Z,0.73
2022-12-12T13:38:27.507Z,0.96
2022-12-12T13:41:08.404Z,0.94
2022-12-12T13:43:49.437Z,0.97
2022-12-12T13:46:35.612Z,1.04
2022-12-12T13:49:18.141Z,0.90
2022-12-12T13:52:11.729Z,0.60
2022-12-12T13:54:52.959Z,0.47
2022-12-12T13:57:34.151Z,0.31
2022-12-12T14:00:19.543Z,0.12
2022-12-12T14:03:07.542Z,-0.04
2022-12-12T14:05:48.111Z,-0.21
2022-12-12T14:08:32.686Z,-0.35
2022-12-12T14:11:20.855Z,-0.50
2022-12-12T14:14:20.853Z,-0.66
2022-12-12T14:17:02.035Z,-0.76
2022-12-12T14:19:41.910Z,-0.88
2022-12-12T14:22:28.084Z,-1.03
2022-12-12T14:25:11.294Z,-1.17
2022-12-12T14:28:13.758Z,-1.29
2022-12-12T14:30:57.222Z,-1.41
2022-12-12T14:34:03.752Z,-1.53
2022-12-12T14:37:08.301Z,-1.62
2022-12-12T14:40:05.363Z,-1.75
2022-12-12T14:43:19.289Z,-1.87
2022-12-12T14:46:00.004Z,-1.99
2022-12-12T14:48:42.810Z,-2.07
2022-12-12T14:51:29.250Z,-2.18
2022-12-12T14:54:14.830Z,-2.27
2022-12-12T14:56:56.369Z,-2.34
2022-12-12T14:59:37.822Z,-2.45
2022-12-12T15:02:19.792Z,-2.52
2022-12-12T15:05:04.893Z,-2.61
2022-12-12T15:07:46.611Z,-2.69
2022-12-12T15:10:29.079Z,-2.79
2022-12-12T15:13:16.614Z,-2.88
2022-12-12T15:15:57.261Z,-2.96
2022-12-12T15:18:38.620Z,-3.06
2022-12-12T15:21:18.695Z,-3.15
2022-12-12T15:24:01.855Z,-3.23
2022-12-12T15:26:45.097Z,-3.30
2022-12-12T15:29:26.555Z,-3.36
2022-12-12T15:32:08.139Z,-3.45
2022-12-12T15:34:49.253Z,-3.55
2022-12-12T15:37:30.679Z,-3.63
2022-12-12T15:40:19.490Z,-3.72
2022-12-12T15:43:01.047Z,-3.78
2022-12-12T15:45:43.159Z,-3.87
2022-12-12T15:48:23.811Z,-3.93
2022-12-12T15:51:05.634Z,-4.00
2022-12-12T15:53:48.856Z,-4.07
2022-12-12T15:56:29.738Z,-4.15
2022-12-12T15:59:23.954Z,-4.22
2022-12-12T16:02:18.781Z,-4.30
2022-12-12T16:05:00.550Z,-4.37
2022-12-12T16:07:42.677Z,-4.43
2022-12-12T16:10:24.767Z,-4.51
2022-12-12T16:13:06.913Z,-4.59
2022-12-12T16:15:50.196Z,-4.63
2022-12-12T16:18:31.152Z,-4.69
2022-12-12T16:21:10.946Z,-4.76
2022-12-12T16:23:52.703Z,-4.82
2022-12-12T16:26:33.735Z,-4.86
2022-12-12T16:29:15.162Z,-4.94
2022-12-12T16:31:56.031Z,-5.00
2022-12-12T16:34:38.348Z,-5.03
2022-12-12T16:37:19.398Z,-5.07
2022-12-12T16:39:57.242Z,-5.13
2022-12-12T16:42:37.489Z,-5.20
2022-12-12T16:45:18.973Z,-5.26
2022-12-12T16:47:58.702Z,-5.29
2022-12-12T16:50:41.986Z,-5.36
2022-12-12T16:53:23.028Z,-5.42
2022-12-12T16:56:03.330Z,-5.46
2022-12-12T16:58:46.054Z,-5.51
2022-12-12T17:01:30.082Z,-5.56
2022-12-12T17:04:13.775Z,-5.60
2022-12-12T17:06:54.979Z,-5.66
2022-12-12T17:09:36.265Z,-5.69
2022-12-12T17:12:37.134Z,-5.74
2022-12-12T17:15:18.107Z,-5.77
2022-12-12T17:17:58.206Z,-5.81
2022-12-12T17:20:39.906Z,-5.84
2022-12-12T17:23:27.417Z,-5.89
2022-12-12T17:26:11.474Z,-5.93
2022-12-12T17:28:51.756Z,-5.98
2022-12-12T17:31:31.600Z,-6.02
2022-12-12T17:34:12.938Z,-6.07
2022-12-12T17:36:52.694Z,-6.08
2022-12-12T17:39:30.606Z,-6.16
2022-12-12T17:42:10.712Z,-6.18
2022-12-12T17:44:50.562Z,-6.21
2022-12-12T17:47:31.973Z,-6.26
2022-12-12T17:50:12.052Z,-6.29
2022-12-12T17:52:53.159Z,-6.32
2022-12-12T17:55:53.272Z,-6.36
2022-12-12T17:58:56.093Z,-6.39
2022-12-12T18:01:37.452Z,-6.43
2022-12-12T18:04:21.855Z,-6.47
2022-12-12T18:07:07.607Z,-6.48
2022-12-12T18:09:48.005Z,-6.50
2022-12-12T18:12:29.444Z,-6.51
2022-12-12T18:15:10.412Z,-6.56
2022-12-12T18:17:50.802Z,-6.57
2022-12-12T18:20:32.142Z,-6.60
2022-12-12T18:23:13.447Z,-6.62
2022-12-12T18:25:51.373Z,-6.68
2022-12-12T18:28:31.596Z,-6.73
2022-12-12T18:31:12.806Z,-6.76
2022-12-12T18:33:54.652Z,-6.78
2022-12-12T18:36:37.673Z,-6.81
2022-12-12T18:39:18.760Z,-6.86
2022-12-12T18:42:00.280Z,-6.86
2022-12-12T18:44:41.481Z,-6.88
2022-12-12T18:47:21.330Z,-6.90
2022-12-12T18:50:01.080Z,-6.94
2022-12-12T18:52:40.954Z,-6.95
2022-12-12T18:55:25.878Z,-6.99
2022-12-12T18:58:06.893Z,-6.99
2022-12-12T19:00:46.677Z,-7.03
2022-12-12T19:03:24.648Z,-7.03
2022-12-12T19:06:06.289Z,-7.05
2022-12-12T19:08:48.623Z,-7.06
2022-12-12T19:11:29.149Z,-7.11
2022-12-12T19:14:09.529Z,-7.12
2022-12-12T19:16:50.363Z,-7.13
2022-12-12T19:19:30.166Z,-7.18
2022-12-12T19:22:39.785Z,-7.17
2022-12-12T19:25:12.592Z,-7.22
2022-12-12T19:27:53.593Z,-7.23
2022-12-12T19:30:38.320Z,-7.24
2022-12-12T19:33:19.622Z,-7.27
2022-12-12T19:35:59.365Z,-7.28
2022-12-12T19:38:39.250Z,-7.32
2022-12-12T19:41:19.707Z,-7.31
2022-12-12T19:44:01.424Z,-7.32
2022-12-12T19:46:42.894Z,-7.36
2022-12-12T19:49:25.236Z,-7.38
2022-12-12T19:52:12.172Z,-7.43
2022-12-12T19:54:54.042Z,-7.44
2022-12-12T19:57:33.837Z,-7.47
2022-12-12T20:00:16.174Z,-7.50
2022-12-12T20:02:56.690Z,-7.51
2022-12-12T20:05:36.476Z,-7.51
2022-12-12T20:08:16.921Z,-7.52
2022-12-12T20:10:57.663Z,-7.55
2022-12-12T20:13:37.650Z,-7.59
2022-12-12T20:16:19.703Z,-7.63
2022-12-12T20:19:00.473Z,-7.65
2022-12-12T20:24:44.975Z,-7.68
2022-12-12T20:27:25.315Z,-7.71
2022-12-12T20:30:07.840Z,-7.72
2022-12-12T20:32:48.368Z,-7.75
2022-12-12T20:35:29.516Z,-7.75
2022-12-12T20:38:09.369Z,-7.81
2022-12-12T20:40:51.452Z,-7.83
2022-12-12T20:43:34.154Z,-7.83
2022-12-12T20:46:15.926Z,-7.84
2022-12-12T20:48:58.945Z,-7.87
2022-12-12T20:51:57.031Z,-7.88
2022-12-12T20:54:38.691Z,-7.92
2022-12-12T20:57:22.017Z,-7.96
2022-12-12T21:00:03.803Z,-7.96
2022-12-12T21:02:46.459Z,-7.98
2022-12-12T21:05:28.766Z,-7.99
2022-12-12T21:08:08.905Z,-8.01
2022-12-12T21:10:50.215Z,-8.02
2022-12-12T21:13:30.036Z,-8.04
2022-12-12T21:16:10.888Z,-8.06
2022-12-12T21:18:52.005Z,-8.09
2022-12-12T21:21:34.589Z,-8.10
2022-12-12T21:24:16.157Z,-8.08
2022-12-12T21:26:57.816Z,-8.11
2022-12-12T21:29:36.617Z,-8.13
2022-12-12T21:32:16.747Z,-8.12
2022-12-12T21:34:58.093Z,-8.15
2022-12-12T21:37:40.592Z,-8.16
2022-12-12T21:40:21.023Z,-8.19
2022-12-12T21:43:02.440Z,-8.22
2022-12-12T21:45:45.698Z,-8.21
2022-12-12T21:48:26.730Z,-8.23
2022-12-12T21:51:07.322Z,-8.24
2022-12-12T21:53:48.023Z,-8.27
2022-12-12T21:56:29.387Z,-8.27
2022-12-12T21:59:10.763Z,-8.26
2022-12-12T22:01:50.661Z,-8.28
2022-12-12T22:04:31.997Z,-8.29
2022-12-12T22:07:13.540Z,-8.29
2022-12-12T22:09:57.382Z,-8.29
2022-12-12T22:12:57.100Z,-8.30
2022-12-12T22:15:38.558Z,-8.33
2022-12-12T22:18:19.848Z,-8.35
2022-12-12T22:21:04.080Z,-8.35
2022-12-12T22:23:44.242Z,-8.38
2022-12-12T22:26:24.659Z,-8.35
2022-12-12T22:29:06.764Z,-8.39
2022-12-12T22:31:47.623Z,-8.41
2022-12-12T22:34:28.212Z,-8.41
2022-12-12T22:37:08.033Z,-8.41
2022-12-12T22:39:47.955Z,-8.43
2022-12-12T22:42:31.249Z,-8.46
2022-12-12T22:45:14.604Z,-8.44
2022-12-12T22:47:58.934Z,-8.44
2022-12-12T22:50:40.081Z,-8.47
2022-12-12T22:53:21.300Z,-8.47
2022-12-12T22:56:03.531Z,-8.48
2022-12-12T22:58:55.971Z,-8.49
2022-12-12T23:01:37.279Z,-8.51
2022-12-12T23:04:17.366Z,-8.56
2022-12-12T23:06:58.542Z,-8.61
2022-12-12T23:09:38.315Z,-8.59
2022-12-12T23:12:18.152Z,-8.60
2022-12-12T23:14:57.981Z,-8.61
2022-12-12T23:17:39.523Z,-8.61
2022-12-12T23:20:20.830Z,-8.64
2022-12-12T23:23:02.388Z,-8.65
2022-12-12T23:25:43.530Z,-8.66
2022-12-12T23:28:24.962Z,-8.68
2022-12-12T23:31:09.405Z,-8.69
2022-12-12T23:33:55.732Z,-8.72
2022-12-12T23:36:38.073Z,-8.73
2022-12-12T23:39:20.669Z,-8.72
2022-12-12T23:42:03.592Z,-8.70
2022-12-12T23:44:50.956Z,-8.72
2022-12-12T23:47:30.774Z,-8.72
2022-12-12T23:50:10.872Z,-8.72
2022-12-12T23:52:51.985Z,-8.72
2022-12-12T23:55:31.786Z,-8.74
2022-12-12T23:58:13.606Z,-8.75
